sensor_id;sensor_type;location;lat;lon;timestamp;P1;durP1;ratioP1;P2;durP2;ratioP2
4638;SDS011;2332;38.646;-9.154;2023-05-10T00:02:06;13.50;;;2.80;;
4638;SDS011;2332;38.646;-9.154;2023-05-10T00:04:32;9.73;;;2.83;;
4638;SDS011;2332;38.646;-9.154;2023-05-10T00:06:57;18.70;;;2.90;;
4638;SDS011;2332;38.646;-9.154;2023-05-10T00:09:23;13.83;;;2.30;;
4638;SDS011;2332;38.646;-9.154;2023-05-10T00:11:48;8.83;;;2.07;;
4638;SDS011;2332;38.646;-9.154;2023-05-10T00:14:13;13.23;;;2.70;;
4638;SDS011;2332;38.646;-9.154;2023-05-10T00:16:39;10.20;;;3.03;;
4638;SDS011;2332;38.646;-9.154;2023-05-10T00:19:05;12.67;;;2.83;;
4638;SDS011;2332;38.646;-9.154;2023-05-10T00:21:30;15.73;;;2.43;;
4638;SDS011;2332;38.646;-9.154;2023-05-10T00:23:57;13.53;;;2.63;;
4638;SDS011;2332;38.646;-9.154;2023-05-10T00:26:22;14.20;;;2.57;;
4638;SDS011;2332;38.646;-9.154;2023-05-10T00:28:47;17.60;;;2.80;;
4638;SDS011;2332;38.646;-9.154;2023-05-10T00:31:13;19.40;;;3.03;;
4638;SDS011;2332;38.646;-9.154;2023-05-10T00:33:39;17.40;;;2.70;;
4638;SDS011;2332;38.646;-9.154;2023-05-10T00:36:05;11.40;;;2.57;;
4638;SDS011;2332;38.646;-9.154;2023-05-10T00:38:32;17.77;;;2.87;;
4638;SDS011;2332;38.646;-9.154;2023-05-10T00:40:58;17.73;;;3.30;;
4638;SDS011;2332;38.646;-9.154;2023-05-10T00:43:23;13.10;;;2.73;;
4638;SDS011;2332;38.646;-9.154;2023-05-10T00:45:49;23.10;;;3.43;;
4638;SDS011;2332;38.646;-9.154;2023-05-10T00:48:17;16.50;;;3.10;;
4638;SDS011;2332;38.646;-9.154;2023-05-10T00:50:42;18.03;;;3.53;;
4638;SDS011;2332;38.646;-9.154;2023-05-10T00:53:08;13.57;;;2.43;;
4638;SDS011;2332;38.646;-9.154;2023-05-10T00:55:33;15.40;;;2.73;;
4638;SDS011;2332;38.646;-9.154;2023-05-10T00:58:02;14.10;;;2.60;;
4638;SDS011;2332;38.646;-9.154;2023-05-10T01:00:27;19.47;;;3.73;;
4638;SDS011;2332;38.646;-9.154;2023-05-10T01:02:54;23.33;;;4.33;;
4638;SDS011;2332;38.646;-9.154;2023-05-10T01:05:20;19.13;;;3.30;;
4638;SDS011;2332;38.646;-9.154;2023-05-10T01:07:45;18.63;;;3.10;;
4638;SDS011;2332;38.646;-9.154;2023-05-10T01:10:13;18.83;;;4.20;;
4638;SDS011;2332;38.646;-9.154;2023-05-10T01:12:40;17.00;;;2.83;;
4638;SDS011;2332;38.646;-9.154;2023-05-10T01:15:06;19.47;;;4.07;;
4638;SDS011;2332;38.646;-9.154;2023-05-10T01:17:33;20.77;;;3.13;;
4638;SDS011;2332;38.646;-9.154;2023-05-10T01:19:58;17.87;;;3.80;;
4638;SDS011;2332;38.646;-9.154;2023-05-10T01:27:47;17.37;;;2.80;;
4638;SDS011;2332;38.646;-9.154;2023-05-10T01:35:47;22.33;;;3.40;;
4638;SDS011;2332;38.646;-9.154;2023-05-10T01:40:52;26.37;;;3.50;;
4638;SDS011;2332;38.646;-9.154;2023-05-10T01:43:33;20.87;;;3.80;;
4638;SDS011;2332;38.646;-9.154;2023-05-10T01:46:05;22.17;;;4.40;;
4638;SDS011;2332;38.646;-9.154;2023-05-10T01:48:54;25.57;;;4.50;;
4638;SDS011;2332;38.646;-9.154;2023-05-10T01:51:21;22.57;;;4.80;;
4638;SDS011;2332;38.646;-9.154;2023-05-10T01:53:48;26.23;;;4.70;;
4638;SDS011;2332;38.646;-9.154;2023-05-10T01:56:13;19.23;;;4.20;;
4638;SDS011;2332;38.646;-9.154;2023-05-10T01:58:40;27.50;;;5.10;;
4638;SDS011;2332;38.646;-9.154;2023-05-10T02:01:09;21.13;;;4.00;;
4638;SDS011;2332;38.646;-9.154;2023-05-10T02:03:35;28.17;;;4.40;;
4638;SDS011;2332;38.646;-9.154;2023-05-10T02:06:01;24.93;;;4.00;;
4638;SDS011;2332;38.646;-9.154;2023-05-10T02:08:27;15.57;;;3.53;;
4638;SDS011;2332;38.646;-9.154;2023-05-10T02:10:53;19.83;;;3.83;;
4638;SDS011;2332;38.646;-9.154;2023-05-10T02:13:19;24.30;;;4.13;;
4638;SDS011;2332;38.646;-9.154;2023-05-10T02:15:46;26.93;;;4.60;;
4638;SDS011;2332;38.646;-9.154;2023-05-10T02:18:13;16.20;;;4.27;;
4638;SDS011;2332;38.646;-9.154;2023-05-10T02:20:38;23.17;;;4.13;;
4638;SDS011;2332;38.646;-9.154;2023-05-10T02:23:04;21.63;;;4.47;;
4638;SDS011;2332;38.646;-9.154;2023-05-10T02:25:30;22.30;;;4.40;;
4638;SDS011;2332;38.646;-9.154;2023-05-10T02:27:56;17.47;;;4.17;;
4638;SDS011;2332;38.646;-9.154;2023-05-10T02:30:22;22.30;;;4.87;;
4638;SDS011;2332;38.646;-9.154;2023-05-10T02:32:49;16.30;;;4.13;;
4638;SDS011;2332;38.646;-9.154;2023-05-10T02:38:18;22.97;;;3.90;;
4638;SDS011;2332;38.646;-9.154;2023-05-10T02:40:45;16.17;;;3.97;;
4638;SDS011;2332;38.646;-9.154;2023-05-10T02:43:12;22.47;;;3.83;;
4638;SDS011;2332;38.646;-9.154;2023-05-10T02:45:38;20.77;;;3.50;;
4638;SDS011;2332;38.646;-9.154;2023-05-10T02:48:05;14.70;;;3.20;;
4638;SDS011;2332;38.646;-9.154;2023-05-10T02:50:31;17.47;;;3.10;;
4638;SDS011;2332;38.646;-9.154;2023-05-10T02:52:59;17.90;;;3.53;;
4638;SDS011;2332;38.646;-9.154;2023-05-10T02:55:26;16.23;;;2.83;;
4638;SDS011;2332;38.646;-9.154;2023-05-10T02:57:58;15.60;;;3.90;;
4638;SDS011;2332;38.646;-9.154;2023-05-10T03:00:24;22.67;;;5.53;;
4638;SDS011;2332;38.646;-9.154;2023-05-10T03:02:49;19.07;;;3.43;;
4638;SDS011;2332;38.646;-9.154;2023-05-10T03:05:15;19.00;;;3.63;;
4638;SDS011;2332;38.646;-9.154;2023-05-10T03:07:40;29.00;;;3.20;;
4638;SDS011;2332;38.646;-9.154;2023-05-10T03:10:06;14.30;;;3.57;;
4638;SDS011;2332;38.646;-9.154;2023-05-10T03:12:36;18.47;;;2.53;;
4638;SDS011;2332;38.646;-9.154;2023-05-10T03:18:06;17.23;;;3.10;;
4638;SDS011;2332;38.646;-9.154;2023-05-10T03:20:36;22.03;;;4.23;;
4638;SDS011;2332;38.646;-9.154;2023-05-10T03:25:47;24.70;;;3.40;;
4638;SDS011;2332;38.646;-9.154;2023-05-10T03:28:13;21.17;;;3.57;;
4638;SDS011;2332;38.646;-9.154;2023-05-10T03:30:40;16.60;;;3.83;;
4638;SDS011;2332;38.646;-9.154;2023-05-10T03:33:06;13.90;;;2.70;;
4638;SDS011;2332;38.646;-9.154;2023-05-10T03:35:32;16.83;;;3.53;;
4638;SDS011;2332;38.646;-9.154;2023-05-10T03:37:57;23.47;;;3.20;;
4638;SDS011;2332;38.646;-9.154;2023-05-10T03:40:23;17.23;;;3.40;;
4638;SDS011;2332;38.646;-9.154;2023-05-10T03:42:48;27.37;;;4.00;;
4638;SDS011;2332;38.646;-9.154;2023-05-10T03:45:14;16.93;;;3.60;;
4638;SDS011;2332;38.646;-9.154;2023-05-10T03:47:40;24.33;;;3.67;;
4638;SDS011;2332;38.646;-9.154;2023-05-10T03:50:06;19.13;;;3.60;;
4638;SDS011;2332;38.646;-9.154;2023-05-10T03:52:31;18.97;;;3.10;;
4638;SDS011;2332;38.646;-9.154;2023-05-10T03:54:57;13.30;;;2.90;;
4638;SDS011;2332;38.646;-9.154;2023-05-10T03:57:22;24.37;;;3.60;;
4638;SDS011;2332;38.646;-9.154;2023-05-10T03:59:47;28.60;;;3.67;;
4638;SDS011;2332;38.646;-9.154;2023-05-10T04:02:13;15.93;;;4.07;;
4638;SDS011;2332;38.646;-9.154;2023-05-10T04:04:38;15.47;;;2.93;;
4638;SDS011;2332;38.646;-9.154;2023-05-10T04:07:04;17.80;;;3.53;;
4638;SDS011;2332;38.646;-9.154;2023-05-10T04:09:29;20.57;;;3.87;;
4638;SDS011;2332;38.646;-9.154;2023-05-10T04:11:54;21.23;;;4.43;;
4638;SDS011;2332;38.646;-9.154;2023-05-10T04:14:20;19.43;;;4.53;;
4638;SDS011;2332;38.646;-9.154;2023-05-10T04:16:45;29.93;;;4.70;;
4638;SDS011;2332;38.646;-9.154;2023-05-10T04:19:11;16.87;;;3.30;;
4638;SDS011;2332;38.646;-9.154;2023-05-10T04:21:36;16.73;;;3.90;;
4638;SDS011;2332;38.646;-9.154;2023-05-10T04:24:02;26.90;;;4.17;;
4638;SDS011;2332;38.646;-9.154;2023-05-10T04:26:27;22.13;;;3.57;;
4638;SDS011;2332;38.646;-9.154;2023-05-10T04:28:52;25.67;;;3.87;;
4638;SDS011;2332;38.646;-9.154;2023-05-10T04:31:18;16.07;;;3.13;;
4638;SDS011;2332;38.646;-9.154;2023-05-10T04:33:43;17.70;;;3.40;;
4638;SDS011;2332;38.646;-9.154;2023-05-10T04:36:09;17.20;;;2.97;;
4638;SDS011;2332;38.646;-9.154;2023-05-10T04:38:34;23.27;;;3.63;;
4638;SDS011;2332;38.646;-9.154;2023-05-10T04:41:06;26.80;;;4.30;;
4638;SDS011;2332;38.646;-9.154;2023-05-10T04:43:32;20.70;;;3.50;;
4638;SDS011;2332;38.646;-9.154;2023-05-10T04:45:57;15.70;;;2.90;;
4638;SDS011;2332;38.646;-9.154;2023-05-10T04:48:22;15.57;;;2.73;;
4638;SDS011;2332;38.646;-9.154;2023-05-10T04:50:48;25.03;;;3.77;;
4638;SDS011;2332;38.646;-9.154;2023-05-10T04:53:13;21.67;;;3.97;;
4638;SDS011;2332;38.646;-9.154;2023-05-10T04:55:38;24.43;;;3.90;;
4638;SDS011;2332;38.646;-9.154;2023-05-10T04:58:04;25.60;;;4.63;;
4638;SDS011;2332;38.646;-9.154;2023-05-10T05:00:29;23.33;;;4.53;;
4638;SDS011;2332;38.646;-9.154;2023-05-10T05:02:54;27.80;;;5.17;;
4638;SDS011;2332;38.646;-9.154;2023-05-10T05:05:20;19.50;;;2.97;;
4638;SDS011;2332;38.646;-9.154;2023-05-10T05:07:45;22.77;;;3.87;;
4638;SDS011;2332;38.646;-9.154;2023-05-10T05:10:11;25.37;;;3.47;;
4638;SDS011;2332;38.646;-9.154;2023-05-10T05:12:36;25.40;;;4.00;;
4638;SDS011;2332;38.646;-9.154;2023-05-10T05:15:01;20.20;;;3.67;;
4638;SDS011;2332;38.646;-9.154;2023-05-10T05:17:27;28.60;;;3.60;;
4638;SDS011;2332;38.646;-9.154;2023-05-10T05:19:54;16.97;;;3.10;;
4638;SDS011;2332;38.646;-9.154;2023-05-10T05:22:20;17.03;;;4.00;;
4638;SDS011;2332;38.646;-9.154;2023-05-10T05:24:55;18.73;;;4.13;;
4638;SDS011;2332;38.646;-9.154;2023-05-10T05:27:21;20.00;;;3.20;;
4638;SDS011;2332;38.646;-9.154;2023-05-10T05:29:52;23.67;;;3.77;;
4638;SDS011;2332;38.646;-9.154;2023-05-10T05:32:17;14.77;;;3.00;;
4638;SDS011;2332;38.646;-9.154;2023-05-10T05:34:46;15.47;;;3.27;;
4638;SDS011;2332;38.646;-9.154;2023-05-10T05:37:14;24.90;;;3.90;;
4638;SDS011;2332;38.646;-9.154;2023-05-10T05:39:40;18.20;;;3.17;;
4638;SDS011;2332;38.646;-9.154;2023-05-10T05:42:05;25.23;;;3.80;;
4638;SDS011;2332;38.646;-9.154;2023-05-10T05:44:31;18.73;;;3.50;;
4638;SDS011;2332;38.646;-9.154;2023-05-10T05:46:56;16.63;;;2.23;;
4638;SDS011;2332;38.646;-9.154;2023-05-10T05:49:22;22.03;;;2.93;;
4638;SDS011;2332;38.646;-9.154;2023-05-10T05:51:47;18.10;;;3.00;;
4638;SDS011;2332;38.646;-9.154;2023-05-10T05:54:15;13.37;;;2.73;;
4638;SDS011;2332;38.646;-9.154;2023-05-10T05:56:40;18.57;;;3.67;;
4638;SDS011;2332;38.646;-9.154;2023-05-10T05:59:06;20.40;;;2.80;;
4638;SDS011;2332;38.646;-9.154;2023-05-10T06:01:31;18.77;;;3.33;;
4638;SDS011;2332;38.646;-9.154;2023-05-10T06:03:57;18.10;;;3.20;;
4638;SDS011;2332;38.646;-9.154;2023-05-10T06:06:22;24.97;;;3.73;;
4638;SDS011;2332;38.646;-9.154;2023-05-10T06:08:47;22.00;;;3.40;;
4638;SDS011;2332;38.646;-9.154;2023-05-10T06:11:13;13.30;;;3.97;;
4638;SDS011;2332;38.646;-9.154;2023-05-10T06:13:38;14.30;;;3.90;;
4638;SDS011;2332;38.646;-9.154;2023-05-10T06:16:04;15.37;;;3.20;;
4638;SDS011;2332;38.646;-9.154;2023-05-10T06:18:29;19.13;;;3.10;;
4638;SDS011;2332;38.646;-9.154;2023-05-10T06:20:55;17.03;;;3.10;;
4638;SDS011;2332;38.646;-9.154;2023-05-10T06:23:20;31.07;;;4.30;;
4638;SDS011;2332;38.646;-9.154;2023-05-10T06:25:47;18.77;;;3.33;;
4638;SDS011;2332;38.646;-9.154;2023-05-10T06:28:12;17.43;;;2.80;;
4638;SDS011;2332;38.646;-9.154;2023-05-10T06:30:38;12.53;;;3.23;;
4638;SDS011;2332;38.646;-9.154;2023-05-10T06:33:03;20.53;;;3.07;;
4638;SDS011;2332;38.646;-9.154;2023-05-10T06:35:28;18.10;;;3.70;;
4638;SDS011;2332;38.646;-9.154;2023-05-10T06:37:54;17.33;;;3.30;;
4638;SDS011;2332;38.646;-9.154;2023-05-10T06:40:19;19.00;;;3.13;;
4638;SDS011;2332;38.646;-9.154;2023-05-10T06:42:45;17.10;;;3.83;;
4638;SDS011;2332;38.646;-9.154;2023-05-10T06:45:11;16.70;;;3.23;;
4638;SDS011;2332;38.646;-9.154;2023-05-10T06:47:37;11.40;;;3.10;;
4638;SDS011;2332;38.646;-9.154;2023-05-10T06:50:02;20.30;;;3.40;;
4638;SDS011;2332;38.646;-9.154;2023-05-10T06:52:28;14.20;;;2.83;;
4638;SDS011;2332;38.646;-9.154;2023-05-10T06:54:53;15.37;;;3.50;;
4638;SDS011;2332;38.646;-9.154;2023-05-10T06:57:19;12.10;;;2.97;;
4638;SDS011;2332;38.646;-9.154;2023-05-10T06:59:44;12.27;;;2.93;;
4638;SDS011;2332;38.646;-9.154;2023-05-10T07:02:10;12.53;;;3.17;;
4638;SDS011;2332;38.646;-9.154;2023-05-10T07:04:35;17.20;;;3.50;;
4638;SDS011;2332;38.646;-9.154;2023-05-10T07:07:01;12.77;;;3.20;;
4638;SDS011;2332;38.646;-9.154;2023-05-10T07:09:26;11.13;;;2.63;;
4638;SDS011;2332;38.646;-9.154;2023-05-10T07:11:55;17.97;;;3.67;;
4638;SDS011;2332;38.646;-9.154;2023-05-10T07:14:21;14.27;;;2.70;;
4638;SDS011;2332;38.646;-9.154;2023-05-10T07:16:46;20.90;;;3.60;;
4638;SDS011;2332;38.646;-9.154;2023-05-10T07:19:12;8.57;;;3.00;;
4638;SDS011;2332;38.646;-9.154;2023-05-10T07:21:37;12.10;;;2.87;;
4638;SDS011;2332;38.646;-9.154;2023-05-10T07:24:02;13.20;;;2.47;;
4638;SDS011;2332;38.646;-9.154;2023-05-10T07:26:28;16.30;;;3.10;;
4638;SDS011;2332;38.646;-9.154;2023-05-10T07:28:54;20.30;;;3.50;;
4638;SDS011;2332;38.646;-9.154;2023-05-10T07:31:20;15.90;;;3.37;;
4638;SDS011;2332;38.646;-9.154;2023-05-10T07:33:45;16.53;;;4.57;;
4638;SDS011;2332;38.646;-9.154;2023-05-10T07:36:11;10.87;;;2.97;;
4638;SDS011;2332;38.646;-9.154;2023-05-10T07:38:36;27.93;;;4.43;;
4638;SDS011;2332;38.646;-9.154;2023-05-10T07:41:02;13.03;;;3.33;;
4638;SDS011;2332;38.646;-9.154;2023-05-10T07:43:27;14.37;;;2.83;;
4638;SDS011;2332;38.646;-9.154;2023-05-10T07:45:52;10.43;;;2.73;;
4638;SDS011;2332;38.646;-9.154;2023-05-10T07:48:22;15.17;;;2.90;;
4638;SDS011;2332;38.646;-9.154;2023-05-10T07:50:47;13.47;;;2.83;;
4638;SDS011;2332;38.646;-9.154;2023-05-10T07:53:13;10.83;;;2.70;;
4638;SDS011;2332;38.646;-9.154;2023-05-10T07:55:38;9.00;;;2.40;;
4638;SDS011;2332;38.646;-9.154;2023-05-10T07:58:04;18.27;;;2.17;;
4638;SDS011;2332;38.646;-9.154;2023-05-10T08:00:29;16.23;;;3.27;;
4638;SDS011;2332;38.646;-9.154;2023-05-10T08:02:54;9.37;;;2.30;;
4638;SDS011;2332;38.646;-9.154;2023-05-10T08:05:22;14.10;;;2.90;;
4638;SDS011;2332;38.646;-9.154;2023-05-10T08:07:48;9.23;;;2.27;;
4638;SDS011;2332;38.646;-9.154;2023-05-10T08:10:13;10.73;;;2.70;;
4638;SDS011;2332;38.646;-9.154;2023-05-10T08:12:38;13.97;;;3.50;;
4638;SDS011;2332;38.646;-9.154;2023-05-10T08:15:04;10.93;;;2.80;;
4638;SDS011;2332;38.646;-9.154;2023-05-10T08:17:32;12.03;;;2.50;;
4638;SDS011;2332;38.646;-9.154;2023-05-10T08:19:58;17.80;;;3.70;;
4638;SDS011;2332;38.646;-9.154;2023-05-10T08:22:23;9.30;;;2.40;;
4638;SDS011;2332;38.646;-9.154;2023-05-10T08:24:48;10.73;;;2.70;;
4638;SDS011;2332;38.646;-9.154;2023-05-10T08:27:14;17.37;;;3.13;;
4638;SDS011;2332;38.646;-9.154;2023-05-10T08:29:39;12.60;;;2.80;;
4638;SDS011;2332;38.646;-9.154;2023-05-10T08:32:05;14.43;;;2.57;;
4638;SDS011;2332;38.646;-9.154;2023-05-10T08:34:30;8.83;;;2.90;;
4638;SDS011;2332;38.646;-9.154;2023-05-10T08:36:56;7.87;;;2.63;;
4638;SDS011;2332;38.646;-9.154;2023-05-10T08:39:21;10.53;;;2.07;;
4638;SDS011;2332;38.646;-9.154;2023-05-10T08:41:48;9.20;;;2.30;;
4638;SDS011;2332;38.646;-9.154;2023-05-10T08:44:16;12.77;;;2.87;;
4638;SDS011;2332;38.646;-9.154;2023-05-10T08:46:43;12.33;;;3.07;;
4638;SDS011;2332;38.646;-9.154;2023-05-10T08:49:10;13.13;;;2.80;;
4638;SDS011;2332;38.646;-9.154;2023-05-10T08:51:39;9.73;;;2.57;;
4638;SDS011;2332;38.646;-9.154;2023-05-10T08:54:05;10.60;;;2.33;;
4638;SDS011;2332;38.646;-9.154;2023-05-10T08:56:31;21.20;;;3.33;;
4638;SDS011;2332;38.646;-9.154;2023-05-10T08:58:56;8.33;;;2.07;;
4638;SDS011;2332;38.646;-9.154;2023-05-10T09:01:22;7.37;;;2.60;;
4638;SDS011;2332;38.646;-9.154;2023-05-10T09:03:47;9.40;;;2.10;;
4638;SDS011;2332;38.646;-9.154;2023-05-10T09:06:13;9.10;;;2.57;;
4638;SDS011;2332;38.646;-9.154;2023-05-10T09:08:38;6.80;;;2.07;;
4638;SDS011;2332;38.646;-9.154;2023-05-10T09:11:05;5.67;;;2.13;;
4638;SDS011;2332;38.646;-9.154;2023-05-10T09:13:30;13.60;;;3.03;;
4638;SDS011;2332;38.646;-9.154;2023-05-10T09:15:57;4.87;;;2.00;;
4638;SDS011;2332;38.646;-9.154;2023-05-10T09:18:22;10.63;;;2.83;;
4638;SDS011;2332;38.646;-9.154;2023-05-10T09:20:48;12.57;;;2.10;;
4638;SDS011;2332;38.646;-9.154;2023-05-10T09:23:13;11.90;;;2.17;;
4638;SDS011;2332;38.646;-9.154;2023-05-10T09:25:40;4.43;;;1.90;;
4638;SDS011;2332;38.646;-9.154;2023-05-10T09:28:06;7.30;;;2.00;;
4638;SDS011;2332;38.646;-9.154;2023-05-10T09:30:36;7.60;;;2.37;;
4638;SDS011;2332;38.646;-9.154;2023-05-10T09:33:01;13.30;;;2.17;;
4638;SDS011;2332;38.646;-9.154;2023-05-10T09:35:27;9.10;;;1.97;;
4638;SDS011;2332;38.646;-9.154;2023-05-10T09:37:56;16.00;;;2.43;;
4638;SDS011;2332;38.646;-9.154;2023-05-10T09:40:25;8.50;;;2.00;;
4638;SDS011;2332;38.646;-9.154;2023-05-10T09:45:16;7.90;;;2.23;;
4638;SDS011;2332;38.646;-9.154;2023-05-10T09:47:41;9.13;;;1.43;;
4638;SDS011;2332;38.646;-9.154;2023-05-10T09:50:07;9.53;;;2.47;;
4638;SDS011;2332;38.646;-9.154;2023-05-10T09:52:51;8.80;;;2.67;;
4638;SDS011;2332;38.646;-9.154;2023-05-10T09:55:19;7.33;;;1.67;;
4638;SDS011;2332;38.646;-9.154;2023-05-10T09:57:47;10.00;;;2.23;;
4638;SDS011;2332;38.646;-9.154;2023-05-10T10:00:16;10.83;;;2.40;;
4638;SDS011;2332;38.646;-9.154;2023-05-10T10:02:42;12.40;;;1.73;;
4638;SDS011;2332;38.646;-9.154;2023-05-10T10:05:08;9.93;;;1.93;;
4638;SDS011;2332;38.646;-9.154;2023-05-10T10:07:33;10.87;;;2.20;;
4638;SDS011;2332;38.646;-9.154;2023-05-10T10:09:59;7.80;;;1.93;;
4638;SDS011;2332;38.646;-9.154;2023-05-10T10:12:25;13.03;;;2.10;;
4638;SDS011;2332;38.646;-9.154;2023-05-10T10:14:56;10.07;;;1.57;;
4638;SDS011;2332;38.646;-9.154;2023-05-10T10:17:27;12.50;;;2.40;;
4638;SDS011;2332;38.646;-9.154;2023-05-10T10:19:55;5.63;;;1.83;;
4638;SDS011;2332;38.646;-9.154;2023-05-10T10:22:20;4.50;;;1.57;;
4638;SDS011;2332;38.646;-9.154;2023-05-10T10:24:45;10.17;;;1.80;;
4638;SDS011;2332;38.646;-9.154;2023-05-10T10:27:24;6.70;;;1.90;;
4638;SDS011;2332;38.646;-9.154;2023-05-10T10:30:02;5.50;;;1.60;;
4638;SDS011;2332;38.646;-9.154;2023-05-10T10:32:42;8.33;;;2.13;;
4638;SDS011;2332;38.646;-9.154;2023-05-10T10:35:14;6.50;;;1.47;;
4638;SDS011;2332;38.646;-9.154;2023-05-10T10:37:46;3.97;;;1.40;;
4638;SDS011;2332;38.646;-9.154;2023-05-10T10:40:28;6.40;;;1.60;;
4638;SDS011;2332;38.646;-9.154;2023-05-10T10:42:54;7.93;;;1.60;;
4638;SDS011;2332;38.646;-9.154;2023-05-10T10:45:20;5.23;;;1.67;;
4638;SDS011;2332;38.646;-9.154;2023-05-10T10:47:46;15.63;;;1.80;;
4638;SDS011;2332;38.646;-9.154;2023-05-10T10:50:12;2.97;;;1.40;;
4638;SDS011;2332;38.646;-9.154;2023-05-10T10:52:38;14.13;;;2.30;;
4638;SDS011;2332;38.646;-9.154;2023-05-10T10:55:14;6.73;;;2.30;;
4638;SDS011;2332;38.646;-9.154;2023-05-10T10:57:54;4.97;;;1.50;;
4638;SDS011;2332;38.646;-9.154;2023-05-10T11:00:26;6.37;;;1.40;;
4638;SDS011;2332;38.646;-9.154;2023-05-10T11:07:56;7.27;;;1.50;;
4638;SDS011;2332;38.646;-9.154;2023-05-10T11:10:22;9.90;;;1.87;;
4638;SDS011;2332;38.646;-9.154;2023-05-10T11:15:48;5.17;;;1.47;;
4638;SDS011;2332;38.646;-9.154;2023-05-10T11:18:17;3.03;;;1.33;;
4638;SDS011;2332;38.646;-9.154;2023-05-10T11:20:43;5.33;;;1.97;;
4638;SDS011;2332;38.646;-9.154;2023-05-10T11:23:12;8.93;;;2.20;;
4638;SDS011;2332;38.646;-9.154;2023-05-10T11:25:44;9.90;;;1.93;;
4638;SDS011;2332;38.646;-9.154;2023-05-10T11:28:10;8.43;;;1.53;;
4638;SDS011;2332;38.646;-9.154;2023-05-10T11:30:37;5.30;;;2.00;;
4638;SDS011;2332;38.646;-9.154;2023-05-10T11:33:03;6.40;;;1.33;;
4638;SDS011;2332;38.646;-9.154;2023-05-10T11:35:28;12.93;;;2.13;;
4638;SDS011;2332;38.646;-9.154;2023-05-10T11:37:54;3.87;;;1.30;;
4638;SDS011;2332;38.646;-9.154;2023-05-10T11:40:21;8.17;;;1.83;;
4638;SDS011;2332;38.646;-9.154;2023-05-10T11:42:46;5.13;;;1.60;;
4638;SDS011;2332;38.646;-9.154;2023-05-10T11:45:23;7.60;;;1.53;;
4638;SDS011;2332;38.646;-9.154;2023-05-10T11:47:48;13.23;;;1.80;;
4638;SDS011;2332;38.646;-9.154;2023-05-10T11:50:14;3.27;;;1.80;;
4638;SDS011;2332;38.646;-9.154;2023-05-10T11:52:39;11.13;;;2.00;;
4638;SDS011;2332;38.646;-9.154;2023-05-10T11:55:05;7.27;;;1.50;;
4638;SDS011;2332;38.646;-9.154;2023-05-10T11:57:30;5.97;;;1.73;;
4638;SDS011;2332;38.646;-9.154;2023-05-10T11:59:56;12.77;;;2.10;;
4638;SDS011;2332;38.646;-9.154;2023-05-10T12:02:22;5.03;;;1.60;;
4638;SDS011;2332;38.646;-9.154;2023-05-10T12:04:47;9.40;;;1.60;;
4638;SDS011;2332;38.646;-9.154;2023-05-10T12:07:13;10.00;;;1.90;;
4638;SDS011;2332;38.646;-9.154;2023-05-10T12:10:25;8.37;;;2.10;;
4638;SDS011;2332;38.646;-9.154;2023-05-10T12:12:24;8.53;;;1.67;;
4638;SDS011;2332;38.646;-9.154;2023-05-10T12:14:50;6.13;;;1.57;;
4638;SDS011;2332;38.646;-9.154;2023-05-10T12:17:16;6.07;;;1.30;;
4638;SDS011;2332;38.646;-9.154;2023-05-10T12:19:41;5.40;;;1.60;;
4638;SDS011;2332;38.646;-9.154;2023-05-10T12:22:06;5.00;;;1.27;;
4638;SDS011;2332;38.646;-9.154;2023-05-10T12:24:36;5.77;;;1.60;;
4638;SDS011;2332;38.646;-9.154;2023-05-10T12:27:04;5.97;;;1.80;;
4638;SDS011;2332;38.646;-9.154;2023-05-10T12:29:30;2.37;;;1.30;;
4638;SDS011;2332;38.646;-9.154;2023-05-10T12:31:56;1.37;;;0.87;;
4638;SDS011;2332;38.646;-9.154;2023-05-10T12:34:25;7.10;;;1.23;;
4638;SDS011;2332;38.646;-9.154;2023-05-10T12:36:54;91.47;;;6.53;;
4638;SDS011;2332;38.646;-9.154;2023-05-10T12:39:20;4.80;;;1.60;;
4638;SDS011;2332;38.646;-9.154;2023-05-10T12:41:45;5.03;;;1.40;;
4638;SDS011;2332;38.646;-9.154;2023-05-10T12:44:11;13.77;;;1.10;;
4638;SDS011;2332;38.646;-9.154;2023-05-10T12:46:36;9.13;;;1.70;;
4638;SDS011;2332;38.646;-9.154;2023-05-10T12:49:02;6.23;;;1.40;;
4638;SDS011;2332;38.646;-9.154;2023-05-10T12:51:27;7.83;;;1.40;;
4638;SDS011;2332;38.646;-9.154;2023-05-10T12:53:52;5.07;;;1.60;;
4638;SDS011;2332;38.646;-9.154;2023-05-10T12:56:19;6.90;;;1.27;;
4638;SDS011;2332;38.646;-9.154;2023-05-10T12:58:45;5.97;;;1.47;;
4638;SDS011;2332;38.646;-9.154;2023-05-10T13:01:13;1.63;;;1.00;;
4638;SDS011;2332;38.646;-9.154;2023-05-10T13:03:38;9.07;;;1.17;;
4638;SDS011;2332;38.646;-9.154;2023-05-10T13:06:04;7.20;;;2.20;;
4638;SDS011;2332;38.646;-9.154;2023-05-10T13:08:30;3.70;;;1.13;;
4638;SDS011;2332;38.646;-9.154;2023-05-10T13:10:58;2.97;;;1.10;;
4638;SDS011;2332;38.646;-9.154;2023-05-10T13:13:23;8.53;;;1.47;;
4638;SDS011;2332;38.646;-9.154;2023-05-10T13:15:49;3.37;;;1.10;;
4638;SDS011;2332;38.646;-9.154;2023-05-10T13:18:14;3.87;;;1.20;;
4638;SDS011;2332;38.646;-9.154;2023-05-10T13:20:40;8.73;;;1.30;;
4638;SDS011;2332;38.646;-9.154;2023-05-10T13:23:05;11.93;;;1.70;;
4638;SDS011;2332;38.646;-9.154;2023-05-10T13:25:31;9.27;;;1.43;;
4638;SDS011;2332;38.646;-9.154;2023-05-10T13:27:56;12.83;;;1.90;;
4638;SDS011;2332;38.646;-9.154;2023-05-10T13:30:21;4.80;;;1.20;;
4638;SDS011;2332;38.646;-9.154;2023-05-10T13:32:48;11.07;;;1.60;;
4638;SDS011;2332;38.646;-9.154;2023-05-10T13:35:14;3.90;;;0.90;;
4638;SDS011;2332;38.646;-9.154;2023-05-10T13:37:39;2.13;;;1.00;;
4638;SDS011;2332;38.646;-9.154;2023-05-10T13:40:05;6.10;;;1.30;;
4638;SDS011;2332;38.646;-9.154;2023-05-10T13:42:31;2.83;;;1.10;;
4638;SDS011;2332;38.646;-9.154;2023-05-10T13:44:58;5.27;;;1.40;;
4638;SDS011;2332;38.646;-9.154;2023-05-10T13:47:29;5.10;;;1.97;;
4638;SDS011;2332;38.646;-9.154;2023-05-10T13:49:54;8.03;;;1.40;;
4638;SDS011;2332;38.646;-9.154;2023-05-10T13:52:23;5.73;;;1.40;;
4638;SDS011;2332;38.646;-9.154;2023-05-10T13:54:48;7.13;;;1.70;;
4638;SDS011;2332;38.646;-9.154;2023-05-10T13:57:14;8.27;;;1.37;;
4638;SDS011;2332;38.646;-9.154;2023-05-10T13:59:41;5.40;;;1.20;;
4638;SDS011;2332;38.646;-9.154;2023-05-10T14:02:07;4.07;;;1.80;;
4638;SDS011;2332;38.646;-9.154;2023-05-10T14:04:32;6.03;;;1.13;;
4638;SDS011;2332;38.646;-9.154;2023-05-10T14:06:59;2.63;;;1.20;;
4638;SDS011;2332;38.646;-9.154;2023-05-10T14:09:24;5.00;;;1.33;;
4638;SDS011;2332;38.646;-9.154;2023-05-10T14:11:50;12.47;;;1.23;;
4638;SDS011;2332;38.646;-9.154;2023-05-10T14:14:15;8.10;;;1.40;;
4638;SDS011;2332;38.646;-9.154;2023-05-10T14:16:44;5.43;;;1.43;;
4638;SDS011;2332;38.646;-9.154;2023-05-10T14:19:10;2.80;;;1.33;;
4638;SDS011;2332;38.646;-9.154;2023-05-10T14:21:35;5.13;;;1.63;;
4638;SDS011;2332;38.646;-9.154;2023-05-10T14:24:00;9.50;;;1.53;;
4638;SDS011;2332;38.646;-9.154;2023-05-10T14:26:26;2.20;;;1.13;;
4638;SDS011;2332;38.646;-9.154;2023-05-10T14:28:52;4.80;;;1.73;;
4638;SDS011;2332;38.646;-9.154;2023-05-10T14:31:17;10.00;;;1.40;;
4638;SDS011;2332;38.646;-9.154;2023-05-10T14:33:45;10.23;;;1.53;;
4638;SDS011;2332;38.646;-9.154;2023-05-10T14:36:10;3.27;;;1.20;;
4638;SDS011;2332;38.646;-9.154;2023-05-10T14:38:36;5.20;;;1.47;;
4638;SDS011;2332;38.646;-9.154;2023-05-10T14:41:01;4.93;;;1.40;;
4638;SDS011;2332;38.646;-9.154;2023-05-10T14:43:26;10.60;;;1.40;;
4638;SDS011;2332;38.646;-9.154;2023-05-10T14:45:53;7.40;;;1.53;;
4638;SDS011;2332;38.646;-9.154;2023-05-10T14:48:18;4.67;;;1.30;;
4638;SDS011;2332;38.646;-9.154;2023-05-10T14:50:44;5.57;;;1.37;;
4638;SDS011;2332;38.646;-9.154;2023-05-10T14:53:10;13.57;;;1.37;;
4638;SDS011;2332;38.646;-9.154;2023-05-10T14:55:35;8.30;;;1.10;;
4638;SDS011;2332;38.646;-9.154;2023-05-10T14:58:04;4.23;;;1.27;;
4638;SDS011;2332;38.646;-9.154;2023-05-10T15:00:29;10.43;;;1.93;;
4638;SDS011;2332;38.646;-9.154;2023-05-10T15:02:55;7.97;;;1.40;;
4638;SDS011;2332;38.646;-9.154;2023-05-10T15:05:20;8.73;;;1.60;;
4638;SDS011;2332;38.646;-9.154;2023-05-10T15:07:45;8.07;;;1.20;;
4638;SDS011;2332;38.646;-9.154;2023-05-10T15:10:11;7.30;;;1.43;;
4638;SDS011;2332;38.646;-9.154;2023-05-10T15:12:37;8.60;;;1.40;;
4638;SDS011;2332;38.646;-9.154;2023-05-10T15:15:02;16.00;;;1.93;;
4638;SDS011;2332;38.646;-9.154;2023-05-10T15:17:28;8.53;;;1.83;;
4638;SDS011;2332;38.646;-9.154;2023-05-10T15:19:53;5.83;;;1.40;;
4638;SDS011;2332;38.646;-9.154;2023-05-10T15:22:18;7.93;;;1.83;;